sensor_id;sensor_type;location;lat;lon;timestamp;P1;durP1;ratioP1;P2;durP2;ratioP2
80313;SDS011;69628;47.516;18.828;2023-11-21T00:00:22;32.50;;;12.23;;
80313;SDS011;69628;47.516;18.828;2023-11-21T00:01:23;32.03;;;11.75;;
80313;SDS011;69628;47.516;18.828;2023-11-21T00:02:23;30.35;;;13.27;;
80313;SDS011;69628;47.516;18.828;2023-11-21T00:03:23;34.20;;;11.15;;
80313;SDS011;69628;47.516;18.828;2023-11-21T00:04:24;24.15;;;10.02;;
80313;SDS011;69628;47.516;18.828;2023-11-21T00:05:24;22.88;;;9.07;;
80313;SDS011;69628;47.516;18.828;2023-11-21T00:06:25;27.38;;;9.10;;
80313;SDS011;69628;47.516;18.828;2023-11-21T00:07:25;21.92;;;9.27;;
80313;SDS011;69628;47.516;18.828;2023-11-21T00:08:26;15.75;;;6.15;;
80313;SDS011;69628;47.516;18.828;2023-11-21T00:09:27;13.85;;;5.90;;
80313;SDS011;69628;47.516;18.828;2023-11-21T00:10:27;16.15;;;5.63;;
80313;SDS011;69628;47.516;18.828;2023-11-21T00:11:28;10.63;;;4.70;;
80313;SDS011;69628;47.516;18.828;2023-11-21T00:12:29;13.95;;;5.25;;
80313;SDS011;69628;47.516;18.828;2023-11-21T00:13:29;12.80;;;5.30;;
80313;SDS011;69628;47.516;18.828;2023-11-21T00:14:29;11.48;;;5.55;;
80313;SDS011;69628;47.516;18.828;2023-11-21T00:15:30;10.82;;;5.25;;
80313;SDS011;69628;47.516;18.828;2023-11-21T00:16:30;8.40;;;4.65;;
80313;SDS011;69628;47.516;18.828;2023-11-21T00:17:30;11.48;;;4.78;;
80313;SDS011;69628;47.516;18.828;2023-11-21T00:18:31;12.63;;;5.40;;
80313;SDS011;69628;47.516;18.828;2023-11-21T00:19:31;9.05;;;5.05;;
80313;SDS011;69628;47.516;18.828;2023-11-21T00:20:33;8.18;;;4.25;;
80313;SDS011;69628;47.516;18.828;2023-11-21T00:21:33;9.85;;;5.13;;
80313;SDS011;69628;47.516;18.828;2023-11-21T00:22:34;6.70;;;4.10;;
80313;SDS011;69628;47.516;18.828;2023-11-21T00:23:35;6.95;;;3.67;;
80313;SDS011;69628;47.516;18.828;2023-11-21T00:24:35;12.38;;;5.50;;
80313;SDS011;69628;47.516;18.828;2023-11-21T00:25:36;8.38;;;4.60;;
80313;SDS011;69628;47.516;18.828;2023-11-21T00:26:36;13.52;;;4.72;;
80313;SDS011;69628;47.516;18.828;2023-11-21T00:27:38;8.07;;;4.45;;
80313;SDS011;69628;47.516;18.828;2023-11-21T00:28:38;10.68;;;4.80;;
80313;SDS011;69628;47.516;18.828;2023-11-21T00:29:38;9.10;;;4.38;;
80313;SDS011;69628;47.516;18.828;2023-11-21T00:30:39;7.63;;;4.47;;
80313;SDS011;69628;47.516;18.828;2023-11-21T00:31:39;6.22;;;3.55;;
80313;SDS011;69628;47.516;18.828;2023-11-21T00:32:40;6.68;;;3.55;;
80313;SDS011;69628;47.516;18.828;2023-11-21T00:33:40;14.07;;;4.82;;
80313;SDS011;69628;47.516;18.828;2023-11-21T00:34:40;9.88;;;5.05;;
80313;SDS011;69628;47.516;18.828;2023-11-21T00:35:41;11.88;;;5.43;;
80313;SDS011;69628;47.516;18.828;2023-11-21T00:36:41;9.65;;;5.22;;
80313;SDS011;69628;47.516;18.828;2023-11-21T00:37:41;12.93;;;6.05;;
80313;SDS011;69628;47.516;18.828;2023-11-21T00:38:42;19.02;;;6.63;;
80313;SDS011;69628;47.516;18.828;2023-11-21T00:39:42;11.10;;;5.32;;
80313;SDS011;69628;47.516;18.828;2023-11-21T00:40:43;8.68;;;5.20;;
80313;SDS011;69628;47.516;18.828;2023-11-21T00:41:43;15.05;;;5.70;;
80313;SDS011;69628;47.516;18.828;2023-11-21T00:42:45;11.48;;;6.30;;
80313;SDS011;69628;47.516;18.828;2023-11-21T00:43:46;7.40;;;4.60;;
80313;SDS011;69628;47.516;18.828;2023-11-21T00:44:46;11.18;;;5.40;;
80313;SDS011;69628;47.516;18.828;2023-11-21T00:45:47;10.45;;;5.55;;
80313;SDS011;69628;47.516;18.828;2023-11-21T00:46:49;8.30;;;4.55;;
80313;SDS011;69628;47.516;18.828;2023-11-21T00:47:50;15.02;;;5.65;;
80313;SDS011;69628;47.516;18.828;2023-11-21T00:48:50;13.02;;;5.75;;
80313;SDS011;69628;47.516;18.828;2023-11-21T00:49:51;13.23;;;5.25;;
80313;SDS011;69628;47.516;18.828;2023-11-21T00:50:51;12.65;;;4.55;;
80313;SDS011;69628;47.516;18.828;2023-11-21T00:51:52;12.27;;;5.78;;
80313;SDS011;69628;47.516;18.828;2023-11-21T00:52:52;11.18;;;5.35;;
80313;SDS011;69628;47.516;18.828;2023-11-21T00:53:52;9.80;;;5.22;;
80313;SDS011;69628;47.516;18.828;2023-11-21T00:54:53;11.18;;;5.40;;
80313;SDS011;69628;47.516;18.828;2023-11-21T00:55:53;14.20;;;6.22;;
80313;SDS011;69628;47.516;18.828;2023-11-21T00:56:57;11.95;;;5.43;;
80313;SDS011;69628;47.516;18.828;2023-11-21T00:57:57;12.40;;;5.50;;
80313;SDS011;69628;47.516;18.828;2023-11-21T00:58:58;10.10;;;5.20;;
80313;SDS011;69628;47.516;18.828;2023-11-21T00:59:58;7.53;;;4.70;;
80313;SDS011;69628;47.516;18.828;2023-11-21T01:00:59;11.02;;;5.00;;
80313;SDS011;69628;47.516;18.828;2023-11-21T01:01:59;9.95;;;4.72;;
80313;SDS011;69628;47.516;18.828;2023-11-21T01:03:01;12.88;;;5.07;;
80313;SDS011;69628;47.516;18.828;2023-11-21T01:04:02;10.45;;;4.80;;
80313;SDS011;69628;47.516;18.828;2023-11-21T01:05:02;13.07;;;6.10;;
80313;SDS011;69628;47.516;18.828;2023-11-21T01:06:03;13.05;;;4.57;;
80313;SDS011;69628;47.516;18.828;2023-11-21T01:07:07;10.48;;;4.60;;
80313;SDS011;69628;47.516;18.828;2023-11-21T01:08:08;11.88;;;4.60;;
80313;SDS011;69628;47.516;18.828;2023-11-21T01:09:08;9.73;;;5.03;;
80313;SDS011;69628;47.516;18.828;2023-11-21T01:10:12;8.23;;;5.05;;
80313;SDS011;69628;47.516;18.828;2023-11-21T01:11:13;15.60;;;5.47;;
80313;SDS011;69628;47.516;18.828;2023-11-21T01:12:13;11.35;;;4.63;;
80313;SDS011;69628;47.516;18.828;2023-11-21T01:13:14;11.25;;;4.28;;
80313;SDS011;69628;47.516;18.828;2023-11-21T01:14:15;10.27;;;5.10;;
80313;SDS011;69628;47.516;18.828;2023-11-21T01:15:17;7.57;;;4.03;;
80313;SDS011;69628;47.516;18.828;2023-11-21T01:16:18;7.75;;;3.60;;
80313;SDS011;69628;47.516;18.828;2023-11-21T01:17:18;11.55;;;4.63;;
80313;SDS011;69628;47.516;18.828;2023-11-21T01:18:18;10.18;;;4.00;;
80313;SDS011;69628;47.516;18.828;2023-11-21T01:19:19;8.57;;;4.10;;
80313;SDS011;69628;47.516;18.828;2023-11-21T01:20:19;7.22;;;3.75;;
80313;SDS011;69628;47.516;18.828;2023-11-21T01:21:20;5.30;;;3.40;;
80313;SDS011;69628;47.516;18.828;2023-11-21T01:22:20;7.95;;;4.20;;
80313;SDS011;69628;47.516;18.828;2023-11-21T01:23:26;4.68;;;2.97;;
80313;SDS011;69628;47.516;18.828;2023-11-21T01:24:27;7.43;;;3.35;;
80313;SDS011;69628;47.516;18.828;2023-11-21T01:25:27;4.68;;;3.08;;
80313;SDS011;69628;47.516;18.828;2023-11-21T01:26:27;6.38;;;3.50;;
80313;SDS011;69628;47.516;18.828;2023-11-21T01:27:28;6.95;;;4.25;;
80313;SDS011;69628;47.516;18.828;2023-11-21T01:28:28;14.07;;;3.75;;
80313;SDS011;69628;47.516;18.828;2023-11-21T01:29:29;5.53;;;3.25;;
80313;SDS011;69628;47.516;18.828;2023-11-21T01:30:29;6.45;;;3.22;;
80313;SDS011;69628;47.516;18.828;2023-11-21T01:31:29;6.82;;;3.53;;
80313;SDS011;69628;47.516;18.828;2023-11-21T01:32:30;7.85;;;3.75;;
80313;SDS011;69628;47.516;18.828;2023-11-21T01:33:30;5.80;;;3.58;;
80313;SDS011;69628;47.516;18.828;2023-11-21T01:34:30;5.60;;;3.63;;
80313;SDS011;69628;47.516;18.828;2023-11-21T01:35:31;10.23;;;4.15;;
80313;SDS011;69628;47.516;18.828;2023-11-21T01:36:31;5.47;;;3.63;;
80313;SDS011;69628;47.516;18.828;2023-11-21T01:37:32;5.00;;;2.90;;
80313;SDS011;69628;47.516;18.828;2023-11-21T01:38:33;6.78;;;3.47;;
80313;SDS011;69628;47.516;18.828;2023-11-21T01:39:34;7.95;;;3.60;;
80313;SDS011;69628;47.516;18.828;2023-11-21T01:40:35;6.63;;;3.13;;
80313;SDS011;69628;47.516;18.828;2023-11-21T01:41:35;16.52;;;4.93;;
80313;SDS011;69628;47.516;18.828;2023-11-21T01:42:36;7.03;;;3.53;;
80313;SDS011;69628;47.516;18.828;2023-11-21T01:43:36;4.88;;;3.45;;
80313;SDS011;69628;47.516;18.828;2023-11-21T01:44:37;7.47;;;3.85;;
80313;SDS011;69628;47.516;18.828;2023-11-21T01:45:37;9.05;;;3.33;;
80313;SDS011;69628;47.516;18.828;2023-11-21T01:46:39;4.60;;;3.15;;
80313;SDS011;69628;47.516;18.828;2023-11-21T01:47:40;4.35;;;2.83;;
80313;SDS011;69628;47.516;18.828;2023-11-21T01:48:41;9.52;;;3.22;;
80313;SDS011;69628;47.516;18.828;2023-11-21T01:49:45;12.93;;;3.25;;
80313;SDS011;69628;47.516;18.828;2023-11-21T01:50:45;6.72;;;3.22;;
80313;SDS011;69628;47.516;18.828;2023-11-21T01:51:47;6.60;;;3.50;;
80313;SDS011;69628;47.516;18.828;2023-11-21T01:52:49;7.70;;;3.28;;
80313;SDS011;69628;47.516;18.828;2023-11-21T01:53:49;7.90;;;3.67;;
80313;SDS011;69628;47.516;18.828;2023-11-21T01:54:49;9.15;;;4.22;;
80313;SDS011;69628;47.516;18.828;2023-11-21T01:55:50;9.68;;;3.33;;
80313;SDS011;69628;47.516;18.828;2023-11-21T01:56:51;11.32;;;3.55;;
80313;SDS011;69628;47.516;18.828;2023-11-21T01:57:51;10.80;;;3.78;;
80313;SDS011;69628;47.516;18.828;2023-11-21T01:58:52;9.25;;;3.60;;
80313;SDS011;69628;47.516;18.828;2023-11-21T01:59:52;8.10;;;3.63;;
80313;SDS011;69628;47.516;18.828;2023-11-21T02:00:54;5.35;;;3.17;;
80313;SDS011;69628;47.516;18.828;2023-11-21T02:01:55;6.63;;;3.65;;
80313;SDS011;69628;47.516;18.828;2023-11-21T02:02:56;8.70;;;3.28;;
80313;SDS011;69628;47.516;18.828;2023-11-21T02:03:57;4.15;;;2.80;;
80313;SDS011;69628;47.516;18.828;2023-11-21T02:04:57;4.50;;;2.67;;
80313;SDS011;69628;47.516;18.828;2023-11-21T02:05:57;6.15;;;3.15;;
80313;SDS011;69628;47.516;18.828;2023-11-21T02:06:58;6.93;;;3.45;;
80313;SDS011;69628;47.516;18.828;2023-11-21T02:07:59;3.92;;;2.97;;
80313;SDS011;69628;47.516;18.828;2023-11-21T02:09:00;4.28;;;2.88;;
80313;SDS011;69628;47.516;18.828;2023-11-21T02:10:01;4.50;;;2.53;;
80313;SDS011;69628;47.516;18.828;2023-11-21T02:11:01;7.05;;;3.15;;
80313;SDS011;69628;47.516;18.828;2023-11-21T02:12:02;6.38;;;3.15;;
80313;SDS011;69628;47.516;18.828;2023-11-21T02:13:04;5.35;;;2.90;;
80313;SDS011;69628;47.516;18.828;2023-11-21T02:14:04;7.38;;;3.28;;
80313;SDS011;69628;47.516;18.828;2023-11-21T02:15:08;5.22;;;3.45;;
80313;SDS011;69628;47.516;18.828;2023-11-21T02:16:14;7.68;;;2.95;;
80313;SDS011;69628;47.516;18.828;2023-11-21T02:17:15;8.60;;;3.20;;
80313;SDS011;69628;47.516;18.828;2023-11-21T02:18:15;6.90;;;2.72;;
80313;SDS011;69628;47.516;18.828;2023-11-21T02:19:19;10.43;;;3.72;;
80313;SDS011;69628;47.516;18.828;2023-11-21T02:20:22;4.53;;;3.03;;
80313;SDS011;69628;47.516;18.828;2023-11-21T02:21:24;8.70;;;3.70;;
80313;SDS011;69628;47.516;18.828;2023-11-21T02:22:26;9.18;;;3.58;;
80313;SDS011;69628;47.516;18.828;2023-11-21T02:23:29;4.57;;;2.70;;
80313;SDS011;69628;47.516;18.828;2023-11-21T02:24:29;7.43;;;3.25;;
80313;SDS011;69628;47.516;18.828;2023-11-21T02:25:30;4.40;;;2.28;;
80313;SDS011;69628;47.516;18.828;2023-11-21T02:26:31;10.85;;;2.95;;
80313;SDS011;69628;47.516;18.828;2023-11-21T02:27:32;3.55;;;2.28;;
80313;SDS011;69628;47.516;18.828;2023-11-21T02:28:33;6.40;;;2.90;;
80313;SDS011;69628;47.516;18.828;2023-11-21T02:29:33;6.65;;;3.72;;
80313;SDS011;69628;47.516;18.828;2023-11-21T02:30:33;5.43;;;2.80;;
80313;SDS011;69628;47.516;18.828;2023-11-21T02:31:34;11.50;;;2.63;;
80313;SDS011;69628;47.516;18.828;2023-11-21T02:32:34;7.38;;;3.53;;
80313;SDS011;69628;47.516;18.828;2023-11-21T02:33:35;6.20;;;3.58;;
80313;SDS011;69628;47.516;18.828;2023-11-21T02:34:35;7.25;;;2.53;;
80313;SDS011;69628;47.516;18.828;2023-11-21T02:35:35;8.88;;;2.65;;
80313;SDS011;69628;47.516;18.828;2023-11-21T02:36:36;5.97;;;2.88;;
80313;SDS011;69628;47.516;18.828;2023-11-21T02:37:37;6.47;;;2.60;;
80313;SDS011;69628;47.516;18.828;2023-11-21T02:38:38;4.28;;;2.30;;
80313;SDS011;69628;47.516;18.828;2023-11-21T02:39:39;4.13;;;2.50;;
80313;SDS011;69628;47.516;18.828;2023-11-21T02:40:39;5.88;;;2.30;;
80313;SDS011;69628;47.516;18.828;2023-11-21T02:41:39;3.65;;;2.50;;
80313;SDS011;69628;47.516;18.828;2023-11-21T02:42:40;6.25;;;2.35;;
80313;SDS011;69628;47.516;18.828;2023-11-21T02:43:40;3.20;;;2.20;;
80313;SDS011;69628;47.516;18.828;2023-11-21T02:44:41;5.32;;;3.20;;
80313;SDS011;69628;47.516;18.828;2023-11-21T02:45:41;4.93;;;3.00;;
80313;SDS011;69628;47.516;18.828;2023-11-21T02:46:41;3.67;;;2.33;;
80313;SDS011;69628;47.516;18.828;2023-11-21T02:47:42;3.72;;;2.70;;
80313;SDS011;69628;47.516;18.828;2023-11-21T02:48:43;5.57;;;2.58;;
80313;SDS011;69628;47.516;18.828;2023-11-21T02:49:43;2.88;;;2.35;;
80313;SDS011;69628;47.516;18.828;2023-11-21T02:50:44;3.15;;;1.85;;
80313;SDS011;69628;47.516;18.828;2023-11-21T02:51:44;4.63;;;2.30;;
80313;SDS011;69628;47.516;18.828;2023-11-21T02:52:44;9.52;;;2.15;;
80313;SDS011;69628;47.516;18.828;2023-11-21T02:53:45;7.88;;;2.53;;
80313;SDS011;69628;47.516;18.828;2023-11-21T02:54:46;8.13;;;2.35;;
80313;SDS011;69628;47.516;18.828;2023-11-21T02:55:46;5.43;;;2.90;;
80313;SDS011;69628;47.516;18.828;2023-11-21T02:56:47;4.03;;;2.35;;
80313;SDS011;69628;47.516;18.828;2023-11-21T02:57:49;7.53;;;3.45;;
80313;SDS011;69628;47.516;18.828;2023-11-21T02:58:50;6.32;;;1.75;;
80313;SDS011;69628;47.516;18.828;2023-11-21T02:59:51;4.00;;;2.42;;
80313;SDS011;69628;47.516;18.828;2023-11-21T03:00:51;7.45;;;2.13;;
80313;SDS011;69628;47.516;18.828;2023-11-21T03:01:51;5.40;;;1.88;;
80313;SDS011;69628;47.516;18.828;2023-11-21T03:02:52;5.22;;;2.50;;
80313;SDS011;69628;47.516;18.828;2023-11-21T03:03:54;3.30;;;2.15;;
80313;SDS011;69628;47.516;18.828;2023-11-21T03:04:55;6.85;;;2.65;;
80313;SDS011;69628;47.516;18.828;2023-11-21T03:05:56;4.38;;;2.97;;
80313;SDS011;69628;47.516;18.828;2023-11-21T03:06:56;3.65;;;1.73;;
80313;SDS011;69628;47.516;18.828;2023-11-21T03:07:56;4.82;;;2.17;;
80313;SDS011;69628;47.516;18.828;2023-11-21T03:08:57;5.75;;;2.05;;
80313;SDS011;69628;47.516;18.828;2023-11-21T03:09:57;2.67;;;1.83;;
80313;SDS011;69628;47.516;18.828;2023-11-21T03:10:58;5.25;;;2.50;;
80313;SDS011;69628;47.516;18.828;2023-11-21T03:11:58;7.05;;;3.08;;
80313;SDS011;69628;47.516;18.828;2023-11-21T03:12:59;10.07;;;2.75;;
80313;SDS011;69628;47.516;18.828;2023-11-21T03:13:59;8.60;;;2.97;;
80313;SDS011;69628;47.516;18.828;2023-11-21T03:14:59;7.82;;;3.20;;
80313;SDS011;69628;47.516;18.828;2023-11-21T03:16:01;4.65;;;2.30;;
80313;SDS011;69628;47.516;18.828;2023-11-21T03:17:02;3.22;;;2.50;;
80313;SDS011;69628;47.516;18.828;2023-11-21T03:18:05;8.65;;;2.63;;
80313;SDS011;69628;47.516;18.828;2023-11-21T03:19:05;5.65;;;2.88;;
80313;SDS011;69628;47.516;18.828;2023-11-21T03:20:06;7.00;;;2.72;;
80313;SDS011;69628;47.516;18.828;2023-11-21T03:21:11;3.70;;;2.35;;
80313;SDS011;69628;47.516;18.828;2023-11-21T03:22:13;3.55;;;2.50;;
80313;SDS011;69628;47.516;18.828;2023-11-21T03:23:13;6.03;;;2.58;;
80313;SDS011;69628;47.516;18.828;2023-11-21T03:24:13;9.55;;;3.10;;
80313;SDS011;69628;47.516;18.828;2023-11-21T03:25:17;7.68;;;3.38;;
80313;SDS011;69628;47.516;18.828;2023-11-21T03:26:18;10.88;;;3.35;;
80313;SDS011;69628;47.516;18.828;2023-11-21T03:27:18;8.00;;;3.00;;
80313;SDS011;69628;47.516;18.828;2023-11-21T03:28:19;10.48;;;3.95;;
80313;SDS011;69628;47.516;18.828;2023-11-21T03:29:19;7.05;;;2.75;;
80313;SDS011;69628;47.516;18.828;2023-11-21T03:30:19;5.35;;;3.00;;
80313;SDS011;69628;47.516;18.828;2023-11-21T03:31:21;8.07;;;3.50;;
80313;SDS011;69628;47.516;18.828;2023-11-21T03:32:21;4.80;;;2.42;;
80313;SDS011;69628;47.516;18.828;2023-11-21T03:33:21;11.20;;;3.30;;
80313;SDS011;69628;47.516;18.828;2023-11-21T03:34:26;4.43;;;2.58;;
80313;SDS011;69628;47.516;18.828;2023-11-21T03:36:27;6.15;;;3.13;;
80313;SDS011;69628;47.516;18.828;2023-11-21T03:37:28;7.90;;;3.13;;
80313;SDS011;69628;47.516;18.828;2023-11-21T03:38:29;6.15;;;2.97;;
80313;SDS011;69628;47.516;18.828;2023-11-21T03:39:29;8.10;;;3.17;;
80313;SDS011;69628;47.516;18.828;2023-11-21T03:40:29;8.20;;;2.83;;
80313;SDS011;69628;47.516;18.828;2023-11-21T03:41:31;4.85;;;2.78;;
80313;SDS011;69628;47.516;18.828;2023-11-21T03:42:31;4.80;;;2.78;;
80313;SDS011;69628;47.516;18.828;2023-11-21T03:43:32;8.52;;;2.85;;
80313;SDS011;69628;47.516;18.828;2023-11-21T03:44:32;9.98;;;3.63;;
80313;SDS011;69628;47.516;18.828;2023-11-21T03:45:33;7.40;;;3.75;;
80313;SDS011;69628;47.516;18.828;2023-11-21T03:46:33;10.27;;;3.50;;
80313;SDS011;69628;47.516;18.828;2023-11-21T03:47:33;9.35;;;3.28;;
80313;SDS011;69628;47.516;18.828;2023-11-21T03:48:34;14.27;;;4.15;;
80313;SDS011;69628;47.516;18.828;2023-11-21T03:49:35;6.53;;;3.50;;
80313;SDS011;69628;47.516;18.828;2023-11-21T03:50:35;7.95;;;3.38;;
80313;SDS011;69628;47.516;18.828;2023-11-21T03:51:36;7.18;;;3.90;;
80313;SDS011;69628;47.516;18.828;2023-11-21T03:52:37;8.20;;;3.97;;
80313;SDS011;69628;47.516;18.828;2023-11-21T03:53:37;7.60;;;3.08;;
80313;SDS011;69628;47.516;18.828;2023-11-21T03:54:38;7.95;;;4.30;;
80313;SDS011;69628;47.516;18.828;2023-11-21T03:55:38;8.73;;;3.22;;
80313;SDS011;69628;47.516;18.828;2023-11-21T03:56:39;3.97;;;2.45;;
80313;SDS011;69628;47.516;18.828;2023-11-21T03:57:39;8.35;;;4.07;;
80313;SDS011;69628;47.516;18.828;2023-11-21T03:58:39;9.23;;;3.85;;
80313;SDS011;69628;47.516;18.828;2023-11-21T03:59:40;12.90;;;3.88;;
80313;SDS011;69628;47.516;18.828;2023-11-21T04:00:41;6.85;;;2.92;;
80313;SDS011;69628;47.516;18.828;2023-11-21T04:01:41;6.07;;;3.35;;
80313;SDS011;69628;47.516;18.828;2023-11-21T04:02:42;9.73;;;3.97;;
80313;SDS011;69628;47.516;18.828;2023-11-21T04:03:42;8.13;;;3.20;;
80313;SDS011;69628;47.516;18.828;2023-11-21T04:04:42;4.97;;;2.97;;
80313;SDS011;69628;47.516;18.828;2023-11-21T04:05:43;5.35;;;2.88;;
80313;SDS011;69628;47.516;18.828;2023-11-21T04:06:45;5.28;;;2.90;;
80313;SDS011;69628;47.516;18.828;2023-11-21T04:07:46;9.45;;;3.85;;
80313;SDS011;69628;47.516;18.828;2023-11-21T04:08:46;14.18;;;3.83;;
80313;SDS011;69628;47.516;18.828;2023-11-21T04:09:47;7.35;;;3.70;;
80313;SDS011;69628;47.516;18.828;2023-11-21T04:10:47;8.32;;;2.83;;
80313;SDS011;69628;47.516;18.828;2023-11-21T04:11:48;5.22;;;3.35;;
80313;SDS011;69628;47.516;18.828;2023-11-21T04:12:48;9.32;;;4.07;;
80313;SDS011;69628;47.516;18.828;2023-11-21T04:13:49;5.40;;;2.97;;
80313;SDS011;69628;47.516;18.828;2023-11-21T04:14:49;7.53;;;2.83;;
80313;SDS011;69628;47.516;18.828;2023-11-21T04:15:50;13.30;;;4.78;;
80313;SDS011;69628;47.516;18.828;2023-11-21T04:16:50;7.32;;;3.05;;
80313;SDS011;69628;47.516;18.828;2023-11-21T04:17:51;10.75;;;3.88;;
80313;SDS011;69628;47.516;18.828;2023-11-21T04:18:51;7.20;;;3.90;;
80313;SDS011;69628;47.516;18.828;2023-11-21T04:19:51;11.68;;;5.13;;
80313;SDS011;69628;47.516;18.828;2023-11-21T04:20:52;10.63;;;4.22;;
80313;SDS011;69628;47.516;18.828;2023-11-21T04:21:52;19.05;;;6.18;;
80313;SDS011;69628;47.516;18.828;2023-11-21T04:22:53;11.23;;;4.88;;
80313;SDS011;69628;47.516;18.828;2023-11-21T04:23:53;16.80;;;4.88;;
80313;SDS011;69628;47.516;18.828;2023-11-21T04:24:54;9.32;;;4.22;;
80313;SDS011;69628;47.516;18.828;2023-11-21T04:25:55;11.65;;;5.22;;
80313;SDS011;69628;47.516;18.828;2023-11-21T04:26:57;18.25;;;5.25;;
80313;SDS011;69628;47.516;18.828;2023-11-21T04:27:57;12.27;;;4.82;;
80313;SDS011;69628;47.516;18.828;2023-11-21T04:28:57;22.80;;;6.40;;
80313;SDS011;69628;47.516;18.828;2023-11-21T04:29:58;11.02;;;4.95;;
80313;SDS011;69628;47.516;18.828;2023-11-21T04:30:58;8.18;;;4.25;;
80313;SDS011;69628;47.516;18.828;2023-11-21T04:31:59;16.70;;;5.28;;
80313;SDS011;69628;47.516;18.828;2023-11-21T04:32:59;14.68;;;5.63;;
80313;SDS011;69628;47.516;18.828;2023-11-21T04:33:59;13.30;;;5.70;;
80313;SDS011;69628;47.516;18.828;2023-11-21T04:35:00;13.27;;;5.97;;
80313;SDS011;69628;47.516;18.828;2023-11-21T04:36:00;12.82;;;4.78;;
80313;SDS011;69628;47.516;18.828;2023-11-21T04:37:01;15.05;;;5.15;;
80313;SDS011;69628;47.516;18.828;2023-11-21T04:38:01;18.50;;;6.07;;
80313;SDS011;69628;47.516;18.828;2023-11-21T04:39:02;6.75;;;3.83;;
80313;SDS011;69628;47.516;18.828;2023-11-21T04:40:03;18.77;;;5.32;;
80313;SDS011;69628;47.516;18.828;2023-11-21T04:41:07;13.10;;;5.13;;
80313;SDS011;69628;47.516;18.828;2023-11-21T04:42:07;8.77;;;3.90;;
80313;SDS011;69628;47.516;18.828;2023-11-21T04:43:08;9.52;;;4.10;;
80313;SDS011;69628;47.516;18.828;2023-11-21T04:44:08;11.40;;;4.97;;
80313;SDS011;69628;47.516;18.828;2023-11-21T04:45:08;12.75;;;3.80;;
80313;SDS011;69628;47.516;18.828;2023-11-21T04:46:09;6.00;;;3.45;;
80313;SDS011;69628;47.516;18.828;2023-11-21T04:47:09;10.38;;;4.63;;
80313;SDS011;69628;47.516;18.828;2023-11-21T04:48:10;10.93;;;4.93;;
80313;SDS011;69628;47.516;18.828;2023-11-21T04:49:10;10.57;;;4.10;;
80313;SDS011;69628;47.516;18.828;2023-11-21T04:50:11;12.57;;;4.78;;
80313;SDS011;69628;47.516;18.828;2023-11-21T04:51:11;7.38;;;3.58;;
80313;SDS011;69628;47.516;18.828;2023-11-21T04:52:12;11.77;;;4.50;;
80313;SDS011;69628;47.516;18.828;2023-11-21T04:53:13;9.60;;;4.82;;
80313;SDS011;69628;47.516;18.828;2023-11-21T04:54:14;7.70;;;3.15;;
80313;SDS011;69628;47.516;18.828;2023-11-21T04:55:14;11.05;;;4.35;;
80313;SDS011;69628;47.516;18.828;2023-11-21T04:56:15;15.82;;;5.63;;
80313;SDS011;69628;47.516;18.828;2023-11-21T04:57:18;18.95;;;6.03;;
80313;SDS011;69628;47.516;18.828;2023-11-21T04:58:18;17.02;;;4.07;;
80313;SDS011;69628;47.516;18.828;2023-11-21T04:59:20;17.73;;;5.72;;
80313;SDS011;69628;47.516;18.828;2023-11-21T05:00:24;10.85;;;4.38;;
80313;SDS011;69628;47.516;18.828;2023-11-21T05:01:25;11.95;;;4.65;;
80313;SDS011;69628;47.516;18.828;2023-11-21T05:02:25;11.90;;;4.22;;
80313;SDS011;69628;47.516;18.828;2023-11-21T05:03:25;13.60;;;4.80;;
80313;SDS011;69628;47.516;18.828;2023-11-21T05:04:26;8.95;;;4.13;;
80313;SDS011;69628;47.516;18.828;2023-11-21T05:05:27;11.57;;;6.00;;
80313;SDS011;69628;47.516;18.828;2023-11-21T05:06:27;20.58;;;5.75;;
80313;SDS011;69628;47.516;18.828;2023-11-21T05:07:27;16.73;;;6.50;;
80313;SDS011;69628;47.516;18.828;2023-11-21T05:08:28;16.35;;;6.00;;
80313;SDS011;69628;47.516;18.828;2023-11-21T05:09:29;11.43;;;5.85;;
80313;SDS011;69628;47.516;18.828;2023-11-21T05:10:32;13.18;;;5.38;;
80313;SDS011;69628;47.516;18.828;2023-11-21T05:11:32;13.32;;;5.40;;
80313;SDS011;69628;47.516;18.828;2023-11-21T05:12:32;10.65;;;4.70;;
80313;SDS011;69628;47.516;18.828;2023-11-21T05:13:39;9.68;;;4.50;;
80313;SDS011;69628;47.516;18.828;2023-11-21T05:14:39;16.00;;;7.22;;
80313;SDS011;69628;47.516;18.828;2023-11-21T05:15:39;15.32;;;5.10;;
80313;SDS011;69628;47.516;18.828;2023-11-21T05:16:41;17.50;;;6.18;;
80313;SDS011;69628;47.516;18.828;2023-11-21T05:17:42;8.35;;;4.85;;
80313;SDS011;69628;47.516;18.828;2023-11-21T05:18:43;9.77;;;5.07;;
80313;SDS011;69628;47.516;18.828;2023-11-21T05:19:44;9.43;;;5.55;;
80313;SDS011;69628;47.516;18.828;2023-11-21T05:20:48;17.27;;;6.05;;
80313;SDS011;69628;47.516;18.828;2023-11-21T05:21:48;12.82;;;4.95;;
80313;SDS011;69628;47.516;18.828;2023-11-21T05:22:49;9.38;;;4.93;;
80313;SDS011;69628;47.516;18.828;2023-11-21T05:23:50;15.77;;;5.45;;
80313;SDS011;69628;47.516;18.828;2023-11-21T05:24:50;15.70;;;5.05;;
80313;SDS011;69628;47.516;18.828;2023-11-21T05:25:50;8.07;;;4.60;;
80313;SDS011;69628;47.516;18.828;2023-11-21T05:26:51;9.40;;;5.13;;
80313;SDS011;69628;47.516;18.828;2023-11-21T05:27:51;11.30;;;4.43;;
80313;SDS011;69628;47.516;18.828;2023-11-21T05:28:53;8.07;;;4.07;;
80313;SDS011;69628;47.516;18.828;2023-11-21T05:29:53;9.02;;;4.28;;
80313;SDS011;69628;47.516;18.828;2023-11-21T05:30:53;10.40;;;4.65;;
80313;SDS011;69628;47.516;18.828;2023-11-21T05:31:54;12.50;;;4.53;;
80313;SDS011;69628;47.516;18.828;2023-11-21T05:32:55;7.45;;;4.10;;
80313;SDS011;69628;47.516;18.828;2023-11-21T05:33:55;7.60;;;4.10;;
80313;SDS011;69628;47.516;18.828;2023-11-21T05:34:55;7.55;;;3.28;;
80313;SDS011;69628;47.516;18.828;2023-11-21T05:35:56;5.93;;;3.88;;
80313;SDS011;69628;47.516;18.828;2023-11-21T05:36:56;10.90;;;4.22;;
80313;SDS011;69628;47.516;18.828;2023-11-21T05:37:58;10.35;;;4.30;;
80313;SDS011;69628;47.516;18.828;2023-11-21T05:38:58;6.75;;;4.20;;
80313;SDS011;69628;47.516;18.828;2023-11-21T05:39:59;10.85;;;5.07;;
80313;SDS011;69628;47.516;18.828;2023-11-21T05:41:04;7.15;;;4.28;;
80313;SDS011;69628;47.516;18.828;2023-11-21T05:42:05;10.40;;;5.57;;
80313;SDS011;69628;47.516;18.828;2023-11-21T05:43:06;8.55;;;5.22;;
80313;SDS011;69628;47.516;18.828;2023-11-21T05:44:07;10.40;;;5.53;;
80313;SDS011;69628;47.516;18.828;2023-11-21T05:45:07;9.20;;;4.30;;
80313;SDS011;69628;47.516;18.828;2023-11-21T05:46:11;9.68;;;4.97;;
80313;SDS011;69628;47.516;18.828;2023-11-21T05:47:11;11.65;;;5.25;;
80313;SDS011;69628;47.516;18.828;2023-11-21T05:48:13;13.27;;;5.55;;
80313;SDS011;69628;47.516;18.828;2023-11-21T05:49:13;9.43;;;4.50;;
80313;SDS011;69628;47.516;18.828;2023-11-21T05:50:16;10.30;;;5.30;;
80313;SDS011;69628;47.516;18.828;2023-11-21T05:51:16;7.25;;;4.80;;
80313;SDS011;69628;47.516;18.828;2023-11-21T05:52:36;18.40;;;5.65;;
80313;SDS011;69628;47.516;18.828;2023-11-21T05:53:37;7.20;;;4.75;;
80313;SDS011;69628;47.516;18.828;2023-11-21T05:54:37;11.10;;;5.15;;
80313;SDS011;69628;47.516;18.828;2023-11-21T05:55:37;8.18;;;5.55;;
80313;SDS011;69628;47.516;18.828;2023-11-21T05:56:39;10.10;;;5.80;;
80313;SDS011;69628;47.516;18.828;2023-11-21T05:57:40;11.13;;;5.75;;
80313;SDS011;69628;47.516;18.828;2023-11-21T05:58:41;13.35;;;6.47;;
80313;SDS011;69628;47.516;18.828;2023-11-21T05:59:41;10.60;;;5.55;;